sensor_id;sensor_type;location;lat;lon;timestamp;pressure;altitude;pressure_sealevel;temperature;humidity
26112;BME280;13829;48.990;8.346;2023-04-06T00:00:49;100802.75;;;2.96;69.04
26112;BME280;13829;48.990;8.346;2023-04-06T00:03:18;100800.09;;;2.94;69.03
26112;BME280;13829;48.990;8.346;2023-04-06T00:05:47;100798.16;;;2.90;69.31
26112;BME280;13829;48.990;8.346;2023-04-06T00:08:16;100793.03;;;2.70;69.98
26112;BME280;13829;48.990;8.346;2023-04-06T00:10:43;100797.94;;;2.64;71.52
26112;BME280;13829;48.990;8.346;2023-04-06T00:13:11;100801.66;;;2.50;72.50
26112;BME280;13829;48.990;8.346;2023-04-06T00:15:38;100796.06;;;2.60;71.50
26112;BME280;13829;48.990;8.346;2023-04-06T00:18:05;100795.34;;;2.64;71.79
26112;BME280;13829;48.990;8.346;2023-04-06T00:20:33;100791.66;;;2.59;71.93
26112;BME280;13829;48.990;8.346;2023-04-06T00:23:00;100795.50;;;2.48;72.49
26112;BME280;13829;48.990;8.346;2023-04-06T00:25:28;100795.16;;;2.40;73.55
26112;BME280;13829;48.990;8.346;2023-04-06T00:27:55;100792.22;;;2.52;72.68
26112;BME280;13829;48.990;8.346;2023-04-06T00:30:22;100794.00;;;2.53;72.20
26112;BME280;13829;48.990;8.346;2023-04-06T00:32:50;100787.97;;;2.34;72.58
26112;BME280;13829;48.990;8.346;2023-04-06T00:35:17;100786.63;;;2.42;73.40
26112;BME280;13829;48.990;8.346;2023-04-06T00:37:46;100782.59;;;2.49;73.15
26112;BME280;13829;48.990;8.346;2023-04-06T00:40:15;100795.47;;;2.67;71.66
26112;BME280;13829;48.990;8.346;2023-04-06T00:42:43;100788.03;;;2.75;70.29
26112;BME280;13829;48.990;8.346;2023-04-06T00:45:11;100798.38;;;2.54;70.99
26112;BME280;13829;48.990;8.346;2023-04-06T00:47:38;100796.81;;;2.38;70.55
26112;BME280;13829;48.990;8.346;2023-04-06T00:50:06;100792.50;;;2.38;70.68
26112;BME280;13829;48.990;8.346;2023-04-06T00:52:34;100798.78;;;2.24;70.86
26112;BME280;13829;48.990;8.346;2023-04-06T00:55:02;100787.25;;;2.17;71.93
26112;BME280;13829;48.990;8.346;2023-04-06T00:57:29;100786.81;;;2.27;72.37
26112;BME280;13829;48.990;8.346;2023-04-06T00:59:57;100790.31;;;2.28;71.27
26112;BME280;13829;48.990;8.346;2023-04-06T01:02:28;100782.34;;;2.23;71.75
26112;BME280;13829;48.990;8.346;2023-04-06T01:04:56;100778.44;;;2.14;71.87
26112;BME280;13829;48.990;8.346;2023-04-06T01:07:23;100785.53;;;1.98;73.17
26112;BME280;13829;48.990;8.346;2023-04-06T01:09:53;100783.91;;;2.00;73.32
26112;BME280;13829;48.990;8.346;2023-04-06T01:12:20;100784.47;;;1.94;73.32
26112;BME280;13829;48.990;8.346;2023-04-06T01:14:47;100783.41;;;2.09;72.49
26112;BME280;13829;48.990;8.346;2023-04-06T01:17:16;100778.03;;;2.04;72.80
26112;BME280;13829;48.990;8.346;2023-04-06T01:19:43;100780.47;;;2.01;73.06
26112;BME280;13829;48.990;8.346;2023-04-06T01:22:16;100779.41;;;1.98;72.99
26112;BME280;13829;48.990;8.346;2023-04-06T01:24:43;100779.88;;;2.07;72.23
26112;BME280;13829;48.990;8.346;2023-04-06T01:27:11;100770.97;;;2.02;71.60
26112;BME280;13829;48.990;8.346;2023-04-06T01:29:39;100760.25;;;2.14;70.43
26112;BME280;13829;48.990;8.346;2023-04-06T01:32:07;100757.94;;;2.00;70.34
26112;BME280;13829;48.990;8.346;2023-04-06T01:34:35;100763.50;;;1.90;71.78
26112;BME280;13829;48.990;8.346;2023-04-06T01:37:02;100758.59;;;1.96;71.38
26112;BME280;13829;48.990;8.346;2023-04-06T01:39:30;100756.69;;;1.92;71.58
26112;BME280;13829;48.990;8.346;2023-04-06T01:41:58;100755.66;;;1.88;71.50
26112;BME280;13829;48.990;8.346;2023-04-06T01:44:25;100748.97;;;1.74;72.56
26112;BME280;13829;48.990;8.346;2023-04-06T01:46:56;100753.41;;;1.76;72.27
26112;BME280;13829;48.990;8.346;2023-04-06T01:49:23;100743.84;;;1.75;73.19
26112;BME280;13829;48.990;8.346;2023-04-06T01:51:50;100745.13;;;1.66;74.32
26112;BME280;13829;48.990;8.346;2023-04-06T01:54:18;100746.31;;;1.72;74.59
26112;BME280;13829;48.990;8.346;2023-04-06T01:56:46;100744.66;;;1.74;74.45
26112;BME280;13829;48.990;8.346;2023-04-06T01:59:15;100745.88;;;1.63;74.69
26112;BME280;13829;48.990;8.346;2023-04-06T02:01:43;100745.88;;;1.63;75.29
26112;BME280;13829;48.990;8.346;2023-04-06T02:04:10;100744.63;;;1.55;75.29
26112;BME280;13829;48.990;8.346;2023-04-06T02:06:39;100746.31;;;1.54;76.24
26112;BME280;13829;48.990;8.346;2023-04-06T02:09:06;100740.69;;;1.63;75.63
26112;BME280;13829;48.990;8.346;2023-04-06T02:11:33;100742.47;;;1.64;75.49
26112;BME280;13829;48.990;8.346;2023-04-06T02:14:02;100744.69;;;1.56;75.51
26112;BME280;13829;48.990;8.346;2023-04-06T02:16:29;100745.75;;;1.60;76.09
26112;BME280;13829;48.990;8.346;2023-04-06T02:18:57;100741.72;;;1.67;75.35
26112;BME280;13829;48.990;8.346;2023-04-06T02:21:24;100743.44;;;1.66;75.26
26112;BME280;13829;48.990;8.346;2023-04-06T02:23:51;100743.44;;;1.66;75.44
26112;BME280;13829;48.990;8.346;2023-04-06T02:26:18;100737.56;;;1.70;75.22
26112;BME280;13829;48.990;8.346;2023-04-06T02:28:46;100740.09;;;1.69;75.38
26112;BME280;13829;48.990;8.346;2023-04-06T02:31:14;100734.28;;;1.74;75.11
26112;BME280;13829;48.990;8.346;2023-04-06T02:33:41;100729.91;;;1.73;74.93
26112;BME280;13829;48.990;8.346;2023-04-06T02:36:08;100734.44;;;1.77;74.46
26112;BME280;13829;48.990;8.346;2023-04-06T02:38:36;100738.91;;;1.62;75.17
26112;BME280;13829;48.990;8.346;2023-04-06T02:41:03;100731.22;;;1.45;75.70
26112;BME280;13829;48.990;8.346;2023-04-06T02:43:30;100734.34;;;1.38;77.45
26112;BME280;13829;48.990;8.346;2023-04-06T02:45:57;100734.66;;;1.44;76.39
26112;BME280;13829;48.990;8.346;2023-04-06T02:48:26;100736.56;;;1.49;76.19
26112;BME280;13829;48.990;8.346;2023-04-06T02:50:53;100733.16;;;1.50;76.45
26112;BME280;13829;48.990;8.346;2023-04-06T02:53:20;100735.66;;;1.48;75.84
26112;BME280;13829;48.990;8.346;2023-04-06T02:55:47;100745.31;;;1.33;76.38
26112;BME280;13829;48.990;8.346;2023-04-06T02:58:14;100733.31;;;1.35;76.87
26112;BME280;13829;48.990;8.346;2023-04-06T03:00:41;100737.09;;;1.41;76.15
26112;BME280;13829;48.990;8.346;2023-04-06T03:03:08;100739.44;;;1.37;76.96
26112;BME280;13829;48.990;8.346;2023-04-06T03:05:37;100731.53;;;1.34;76.30
26112;BME280;13829;48.990;8.346;2023-04-06T03:08:04;100726.78;;;1.43;76.73
26112;BME280;13829;48.990;8.346;2023-04-06T03:10:31;100729.19;;;1.38;77.04
26112;BME280;13829;48.990;8.346;2023-04-06T03:12:58;100725.31;;;1.30;77.22
26112;BME280;13829;48.990;8.346;2023-04-06T03:15:25;100728.88;;;1.32;77.54
26112;BME280;13829;48.990;8.346;2023-04-06T03:17:52;100729.81;;;1.52;76.19
26112;BME280;13829;48.990;8.346;2023-04-06T03:20:20;100729.47;;;1.44;76.01
26112;BME280;13829;48.990;8.346;2023-04-06T03:22:48;100733.44;;;1.38;76.41
26112;BME280;13829;48.990;8.346;2023-04-06T03:25:15;100734.81;;;1.29;76.86
26112;BME280;13829;48.990;8.346;2023-04-06T03:27:42;100733.31;;;1.35;76.80
26112;BME280;13829;48.990;8.346;2023-04-06T03:30:10;100729.00;;;1.35;76.59
26112;BME280;13829;48.990;8.346;2023-04-06T03:32:37;100730.78;;;1.36;76.25
26112;BME280;13829;48.990;8.346;2023-04-06T03:35:05;100723.84;;;1.35;76.47
26112;BME280;13829;48.990;8.346;2023-04-06T03:37:32;100730.00;;;1.37;75.83
26112;BME280;13829;48.990;8.346;2023-04-06T03:40:01;100725.47;;;1.33;76.44
26112;BME280;13829;48.990;8.346;2023-04-06T03:42:28;100731.25;;;1.27;76.05
26112;BME280;13829;48.990;8.346;2023-04-06T03:44:56;100733.09;;;1.30;75.78
26112;BME280;13829;48.990;8.346;2023-04-06T03:47:23;100735.09;;;1.18;75.84
26112;BME280;13829;48.990;8.346;2023-04-06T03:49:51;100735.25;;;1.21;76.59
26112;BME280;13829;48.990;8.346;2023-04-06T03:52:18;100736.19;;;1.23;75.87
26112;BME280;13829;48.990;8.346;2023-04-06T03:54:45;100743.41;;;1.10;76.43
26112;BME280;13829;48.990;8.346;2023-04-06T03:57:14;100742.66;;;1.13;76.26
26112;BME280;13829;48.990;8.346;2023-04-06T03:59:41;100746.66;;;1.24;76.85
26112;BME280;13829;48.990;8.346;2023-04-06T04:02:08;100747.41;;;1.22;76.49
26112;BME280;13829;48.990;8.346;2023-04-06T04:04:35;100749.88;;;1.20;76.09
26112;BME280;13829;48.990;8.346;2023-04-06T04:07:02;100754.19;;;1.20;76.56
26112;BME280;13829;48.990;8.346;2023-04-06T04:09:29;100749.00;;;1.20;75.81
26112;BME280;13829;48.990;8.346;2023-04-06T04:11:56;100752.78;;;1.08;76.38
26112;BME280;13829;48.990;8.346;2023-04-06T04:14:25;100758.16;;;0.95;76.95
26112;BME280;13829;48.990;8.346;2023-04-06T04:16:52;100763.13;;;0.90;77.30
26112;BME280;13829;48.990;8.346;2023-04-06T04:19:19;100760.13;;;0.99;76.85
26112;BME280;13829;48.990;8.346;2023-04-06T04:21:47;100772.41;;;1.03;77.21
26112;BME280;13829;48.990;8.346;2023-04-06T04:24:14;100775.13;;;1.06;76.97
26112;BME280;13829;48.990;8.346;2023-04-06T04:26:41;100775.28;;;1.09;76.32
26112;BME280;13829;48.990;8.346;2023-04-06T04:29:08;100773.38;;;1.05;76.72
26112;BME280;13829;48.990;8.346;2023-04-06T04:31:39;100771.59;;;1.04;76.62
26112;BME280;13829;48.990;8.346;2023-04-06T04:34:06;100770.78;;;1.05;76.70
26112;BME280;13829;48.990;8.346;2023-04-06T04:36:33;100771.34;;;1.18;75.64
26112;BME280;13829;48.990;8.346;2023-04-06T04:39:01;100777.28;;;1.15;75.54
26112;BME280;13829;48.990;8.346;2023-04-06T04:41:28;100780.03;;;1.00;76.24
26112;BME280;13829;48.990;8.346;2023-04-06T04:43:56;100780.97;;;1.02;76.47
26112;BME280;13829;48.990;8.346;2023-04-06T04:46:23;100779.19;;;1.01;76.26
26112;BME280;13829;48.990;8.346;2023-04-06T04:48:51;100776.69;;;1.03;75.81
26112;BME280;13829;48.990;8.346;2023-04-06T04:51:18;100772.84;;;1.12;75.39
26112;BME280;13829;48.990;8.346;2023-04-06T04:53:46;100786.31;;;1.05;75.80
26112;BME280;13829;48.990;8.346;2023-04-06T04:56:13;100781.56;;;0.96;76.05
26112;BME280;13829;48.990;8.346;2023-04-06T04:58:40;100787.78;;;1.00;76.28
26112;BME280;13829;48.990;8.346;2023-04-06T05:01:08;100785.47;;;1.06;76.06
26112;BME280;13829;48.990;8.346;2023-04-06T05:03:36;100785.19;;;1.00;76.22
26112;BME280;13829;48.990;8.346;2023-04-06T05:06:06;100784.97;;;1.13;75.56
26112;BME280;13829;48.990;8.346;2023-04-06T05:08:33;100787.94;;;1.21;75.46
26112;BME280;13829;48.990;8.346;2023-04-06T05:11:00;100796.69;;;1.23;74.82
26112;BME280;13829;48.990;8.346;2023-04-06T05:13:29;100802.00;;;1.26;75.19
26112;BME280;13829;48.990;8.346;2023-04-06T05:15:56;100796.75;;;1.25;75.10
26112;BME280;13829;48.990;8.346;2023-04-06T05:18:23;100803.13;;;1.13;75.67
26112;BME280;13829;48.990;8.346;2023-04-06T05:20:50;100805.41;;;1.25;75.31
26112;BME280;13829;48.990;8.346;2023-04-06T05:23:19;100803.13;;;1.32;75.47
26112;BME280;13829;48.990;8.346;2023-04-06T05:25:46;100803.34;;;1.36;75.11
26112;BME280;13829;48.990;8.346;2023-04-06T05:28:13;100811.06;;;1.17;75.99
26112;BME280;13829;48.990;8.346;2023-04-06T05:30:42;100808.09;;;1.27;76.50
26112;BME280;13829;48.990;8.346;2023-04-06T05:33:09;100808.84;;;1.42;75.68
26112;BME280;13829;48.990;8.346;2023-04-06T05:35:37;100811.44;;;1.42;76.14
26112;BME280;13829;48.990;8.346;2023-04-06T05:38:07;100810.31;;;1.37;76.79
26112;BME280;13829;48.990;8.346;2023-04-06T05:40:36;100811.44;;;1.42;76.90
26112;BME280;13829;48.990;8.346;2023-04-06T05:43:04;100815.13;;;1.48;77.82
26112;BME280;13829;48.990;8.346;2023-04-06T05:45:31;100814.75;;;1.58;77.79
26112;BME280;13829;48.990;8.346;2023-04-06T05:47:58;100817.25;;;1.74;77.58
26112;BME280;13829;48.990;8.346;2023-04-06T05:50:25;100811.91;;;1.89;77.51
26112;BME280;13829;48.990;8.346;2023-04-06T05:52:52;100805.25;;;1.94;77.21
26112;BME280;13829;48.990;8.346;2023-04-06T05:55:19;100815.97;;;2.02;76.89
26112;BME280;13829;48.990;8.346;2023-04-06T05:57:48;100812.03;;;2.10;76.42
26112;BME280;13829;48.990;8.346;2023-04-06T06:00:15;100810.66;;;2.19;76.54
26112;BME280;13829;48.990;8.346;2023-04-06T06:02:42;100807.66;;;2.29;76.63
26112;BME280;13829;48.990;8.346;2023-04-06T06:05:10;100816.41;;;2.31;76.72
26112;BME280;13829;48.990;8.346;2023-04-06T06:07:37;100817.25;;;2.50;76.58
26112;BME280;13829;48.990;8.346;2023-04-06T06:10:06;100805.69;;;2.63;76.83
26112;BME280;13829;48.990;8.346;2023-04-06T06:12:33;100810.56;;;2.76;76.61
26112;BME280;13829;48.990;8.346;2023-04-06T06:15:02;100804.28;;;2.90;76.35
26112;BME280;13829;48.990;8.346;2023-04-06T06:17:29;100804.84;;;3.04;75.80
26112;BME280;13829;48.990;8.346;2023-04-06T06:19:57;100801.09;;;3.19;75.22
26112;BME280;13829;48.990;8.346;2023-04-06T06:22:24;100805.34;;;3.38;74.94
26112;BME280;13829;48.990;8.346;2023-04-06T06:24:51;100802.44;;;3.51;74.76
26112;BME280;13829;48.990;8.346;2023-04-06T06:27:18;100803.84;;;3.66;74.12
26112;BME280;13829;48.990;8.346;2023-04-06T06:29:45;100799.09;;;3.77;73.29
26112;BME280;13829;48.990;8.346;2023-04-06T06:32:14;100799.72;;;3.94;73.76
26112;BME280;13829;48.990;8.346;2023-04-06T06:34:41;100798.00;;;4.17;72.67
26112;BME280;13829;48.990;8.346;2023-04-06T06:37:08;100796.38;;;4.20;71.52
26112;BME280;13829;48.990;8.346;2023-04-06T06:39:35;100802.28;;;4.63;70.36
26112;BME280;13829;48.990;8.346;2023-04-06T06:42:03;100793.03;;;4.71;69.66
26112;BME280;13829;48.990;8.346;2023-04-06T06:44:32;100797.88;;;4.86;67.81
26112;BME280;13829;48.990;8.346;2023-04-06T06:46:59;100795.22;;;5.11;68.11
26112;BME280;13829;48.990;8.346;2023-04-06T06:49:28;100794.72;;;6.35;65.82
26112;BME280;13829;48.990;8.346;2023-04-06T06:51:55;100782.66;;;8.20;59.52
26112;BME280;13829;48.990;8.346;2023-04-06T06:54:22;100777.06;;;10.05;50.91
26112;BME280;13829;48.990;8.346;2023-04-06T06:56:49;100778.31;;;11.20;47.94
26112;BME280;13829;48.990;8.346;2023-04-06T06:59:16;100773.78;;;12.39;45.07
26112;BME280;13829;48.990;8.346;2023-04-06T07:01:43;100758.97;;;13.48;41.71
26112;BME280;13829;48.990;8.346;2023-04-06T07:04:10;100764.13;;;13.99;40.57
26112;BME280;13829;48.990;8.346;2023-04-06T07:06:39;100761.25;;;14.51;37.96
26112;BME280;13829;48.990;8.346;2023-04-06T07:09:06;100765.56;;;14.74;38.02
26112;BME280;13829;48.990;8.346;2023-04-06T07:11:33;100769.38;;;14.17;38.37
26112;BME280;13829;48.990;8.346;2023-04-06T07:14:00;100766.28;;;14.98;37.12
26112;BME280;13829;48.990;8.346;2023-04-06T07:16:29;100764.47;;;15.98;35.06
26112;BME280;13829;48.990;8.346;2023-04-06T07:18:56;100760.50;;;15.54;35.30
26112;BME280;13829;48.990;8.346;2023-04-06T07:21:23;100757.22;;;16.12;34.18
26112;BME280;13829;48.990;8.346;2023-04-06T07:23:52;100750.44;;;16.58;35.24
26112;BME280;13829;48.990;8.346;2023-04-06T07:26:19;100755.16;;;17.52;32.92
26112;BME280;13829;48.990;8.346;2023-04-06T07:28:46;100751.56;;;17.56;32.22
26112;BME280;13829;48.990;8.346;2023-04-06T07:31:13;100750.66;;;18.46;31.04
26112;BME280;13829;48.990;8.346;2023-04-06T07:33:40;100755.53;;;19.05;31.70
26112;BME280;13829;48.990;8.346;2023-04-06T07:36:08;100753.25;;;18.90;30.27
26112;BME280;13829;48.990;8.346;2023-04-06T07:38:35;100742.25;;;19.38;30.33
26112;BME280;13829;48.990;8.346;2023-04-06T07:41:03;100754.97;;;18.91;31.59
26112;BME280;13829;48.990;8.346;2023-04-06T07:43:31;100749.84;;;18.82;29.79
26112;BME280;13829;48.990;8.346;2023-04-06T07:45:58;100758.56;;;17.60;31.70
26112;BME280;13829;48.990;8.346;2023-04-06T07:48:25;100759.84;;;17.37;32.35
26112;BME280;13829;48.990;8.346;2023-04-06T07:51:01;100760.91;;;17.27;32.69
26112;BME280;13829;48.990;8.346;2023-04-06T07:53:29;100762.59;;;17.34;32.75
26112;BME280;13829;48.990;8.346;2023-04-06T07:55:56;100764.31;;;17.35;31.82
26112;BME280;13829;48.990;8.346;2023-04-06T07:58:24;100765.69;;;17.59;32.31
26112;BME280;13829;48.990;8.346;2023-04-06T08:00:51;100761.84;;;17.74;32.52
26112;BME280;13829;48.990;8.346;2023-04-06T08:03:20;100770.13;;;17.57;31.87
26112;BME280;13829;48.990;8.346;2023-04-06T08:05:51;100770.06;;;17.10;32.63
26112;BME280;13829;48.990;8.346;2023-04-06T08:08:19;100765.72;;;17.56;32.96
26112;BME280;13829;48.990;8.346;2023-04-06T08:10:47;100777.53;;;16.17;33.76
26112;BME280;13829;48.990;8.346;2023-04-06T08:13:15;100779.78;;;16.47;33.91
26112;BME280;13829;48.990;8.346;2023-04-06T08:15:43;100772.97;;;16.26;35.85
26112;BME280;13829;48.990;8.346;2023-04-06T08:18:11;100777.03;;;15.84;37.37
26112;BME280;13829;48.990;8.346;2023-04-06T08:20:39;100769.53;;;15.34;37.13
26112;BME280;13829;48.990;8.346;2023-04-06T08:23:06;100767.44;;;15.67;37.57
26112;BME280;13829;48.990;8.346;2023-04-06T08:25:36;100762.28;;;15.52;37.64
26112;BME280;13829;48.990;8.346;2023-04-06T08:28:03;100764.34;;;15.20;36.64
26112;BME280;13829;48.990;8.346;2023-04-06T08:30:30;100765.50;;;14.80;38.95
26112;BME280;13829;48.990;8.346;2023-04-06T08:32:59;100773.56;;;14.59;40.53
26112;BME280;13829;48.990;8.346;2023-04-06T08:35:26;100764.56;;;14.89;38.22
26112;BME280;13829;48.990;8.346;2023-04-06T08:37:53;100765.69;;;14.46;40.13
26112;BME280;13829;48.990;8.346;2023-04-06T08:40:20;100762.25;;;14.29;40.99
26112;BME280;13829;48.990;8.346;2023-04-06T08:42:52;100765.78;;;14.25;41.61
26112;BME280;13829;48.990;8.346;2023-04-06T08:45:21;100757.00;;;14.19;39.06
26112;BME280;13829;48.990;8.346;2023-04-06T08:47:50;100764.13;;;13.99;39.40
26112;BME280;13829;48.990;8.346;2023-04-06T08:50:20;100765.03;;;13.96;40.73
26112;BME280;13829;48.990;8.346;2023-04-06T08:52:48;100765.94;;;13.75;38.94
26112;BME280;13829;48.990;8.346;2023-04-06T08:55:16;100764.19;;;13.68;42.46
26112;BME280;13829;48.990;8.346;2023-04-06T08:57:45;100759.78;;;13.87;42.06
26112;BME280;13829;48.990;8.346;2023-04-06T09:00:14;100761.50;;;13.99;39.64
26112;BME280;13829;48.990;8.346;2023-04-06T09:02:45;100755.19;;;14.25;40.70
26112;BME280;13829;48.990;8.346;2023-04-06T09:05:13;100755.28;;;14.03;43.27
26112;BME280;13829;48.990;8.346;2023-04-06T09:07:41;100755.28;;;14.05;41.37
26112;BME280;13829;48.990;8.346;2023-04-06T09:10:09;100755.31;;;13.97;40.98
26112;BME280;13829;48.990;8.346;2023-04-06T09:12:36;100761.53;;;13.83;41.09
26112;BME280;13829;48.990;8.346;2023-04-06T09:15:04;100760.69;;;13.78;42.27
26112;BME280;13829;48.990;8.346;2023-04-06T09:17:32;100763.25;;;13.91;39.81
26112;BME280;13829;48.990;8.346;2023-04-06T09:20:01;100755.34;;;13.88;40.51
26112;BME280;13829;48.990;8.346;2023-04-06T09:22:36;100756.31;;;13.63;41.27
26112;BME280;13829;48.990;8.346;2023-04-06T09:25:07;100754.53;;;13.64;41.74
26112;BME280;13829;48.990;8.346;2023-04-06T09:27:37;100748.38;;;13.31;41.17
26112;BME280;13829;48.990;8.346;2023-04-06T09:30:07;100750.13;;;13.19;44.15
26112;BME280;13829;48.990;8.346;2023-04-06T09:32:46;100749.25;;;12.96;41.58
26112;BME280;13829;48.990;8.346;2023-04-06T09:35:14;100749.25;;;12.96;42.71
26112;BME280;13829;48.990;8.346;2023-04-06T09:37:42;100755.38;;;12.79;43.17
26112;BME280;13829;48.990;8.346;2023-04-06T09:40:12;100752.66;;;12.34;45.78
26112;BME280;13829;48.990;8.346;2023-04-06T09:42:41;100754.34;;;12.15;43.10
26112;BME280;13829;48.990;8.346;2023-04-06T09:45:09;100750.84;;;12.27;47.22
26112;BME280;13829;48.990;8.346;2023-04-06T09:47:37;100752.63;;;12.28;41.72
26112;BME280;13829;48.990;8.346;2023-04-06T09:50:10;100754.41;;;12.38;45.75
26112;BME280;13829;48.990;8.346;2023-04-06T09:52:42;100756.19;;;12.41;43.15
26112;BME280;13829;48.990;8.346;2023-04-06T09:55:22;100753.56;;;12.47;43.91
26112;BME280;13829;48.990;8.346;2023-04-06T09:57:57;100755.25;;;12.20;42.45
26112;BME280;13829;48.990;8.346;2023-04-06T10:00:32;100749.97;;;12.23;43.37
26112;BME280;13829;48.990;8.346;2023-04-06T10:03:10;100749.94;;;12.11;42.48
26112;BME280;13829;48.990;8.346;2023-04-06T10:05:48;100751.72;;;12.18;45.14
26112;BME280;13829;48.990;8.346;2023-04-06T10:08:19;100751.75;;;12.28;42.37
26112;BME280;13829;48.990;8.346;2023-04-06T10:10:50;100757.94;;;12.33;40.19
26112;BME280;13829;48.990;8.346;2023-04-06T10:13:19;100752.59;;;12.23;41.92
26112;BME280;13829;48.990;8.346;2023-04-06T10:15:51;100746.44;;;12.17;41.52
26112;BME280;13829;48.990;8.346;2023-04-06T10:18:18;100754.34;;;12.15;40.95
26112;BME280;13829;48.990;8.346;2023-04-06T10:20:51;100755.25;;;12.20;42.01
26112;BME280;13829;48.990;8.346;2023-04-06T10:23:31;100753.56;;;12.44;41.39
26112;BME280;13829;48.990;8.346;2023-04-06T10:26:02;100753.56;;;12.47;40.04
26112;BME280;13829;48.990;8.346;2023-04-06T10:28:32;100755.31;;;12.51;41.65
26112;BME280;13829;48.990;8.346;2023-04-06T10:31:04;100750.06;;;12.48;40.80
26112;BME280;13829;48.990;8.346;2023-04-06T10:33:32;100750.94;;;12.55;39.00
26112;BME280;13829;48.990;8.346;2023-04-06T10:36:10;100743.88;;;12.38;37.19
26112;BME280;13829;48.990;8.346;2023-04-06T10:38:39;100747.34;;;12.19;37.70
26112;BME280;13829;48.990;8.346;2023-04-06T10:41:10;100746.47;;;12.26;38.08
26112;BME280;13829;48.990;8.346;2023-04-06T10:43:41;100742.09;;;12.28;37.78
26112;BME280;13829;48.990;8.346;2023-04-06T10:46:09;100742.97;;;12.35;38.18
26112;BME280;13829;48.990;8.346;2023-04-06T10:48:39;100737.75;;;12.44;37.07
26112;BME280;13829;48.990;8.346;2023-04-06T10:51:11;100728.94;;;12.51;37.92
26112;BME280;13829;48.990;8.346;2023-04-06T10:53:41;100721.94;;;12.60;36.04
26112;BME280;13829;48.990;8.346;2023-04-06T10:56:14;100725.47;;;12.71;35.82
26112;BME280;13829;48.990;8.346;2023-04-06T10:58:45;100723.72;;;12.82;34.77
26112;BME280;13829;48.990;8.346;2023-04-06T11:01:15;100718.47;;;12.95;37.30
26112;BME280;13829;48.990;8.346;2023-04-06T11:03:44;100713.19;;;13.04;36.87
26112;BME280;13829;48.990;8.346;2023-04-06T11:06:18;100711.41;;;13.09;35.79
26112;BME280;13829;48.990;8.346;2023-04-06T11:08:46;100704.38;;;13.08;36.09
26112;BME280;13829;48.990;8.346;2023-04-06T11:11:17;100699.97;;;13.13;36.57
26112;BME280;13829;48.990;8.346;2023-04-06T11:13:48;100695.53;;;13.25;36.27
26112;BME280;13829;48.990;8.346;2023-04-06T11:16:17;100698.19;;;13.28;37.48
26112;BME280;13829;48.990;8.346;2023-04-06T11:18:54;100696.44;;;13.47;38.16
26112;BME280;13829;48.990;8.346;2023-04-06T11:21:35;100692.03;;;13.47;36.14
26112;BME280;13829;48.990;8.346;2023-04-06T11:24:10;100688.47;;;13.51;35.49
26112;BME280;13829;48.990;8.346;2023-04-06T11:26:42;100687.56;;;13.69;35.27
26112;BME280;13829;48.990;8.346;2023-04-06T11:29:11;100686.63;;;13.81;36.51
26112;BME280;13829;48.990;8.346;2023-04-06T11:31:45;100674.25;;;13.93;34.30
26112;BME280;13829;48.990;8.346;2023-04-06T11:34:16;100667.97;;;14.11;34.94
26112;BME280;13829;48.990;8.346;2023-04-06T11:36:44;100666.13;;;14.27;36.10
26112;BME280;13829;48.990;8.346;2023-04-06T11:39:13;100664.34;;;14.30;36.37
26112;BME280;13829;48.990;8.346;2023-04-06T11:41:47;100661.56;;;14.49;35.87
26112;BME280;13829;48.990;8.346;2023-04-06T11:44:15;100644.84;;;14.47;33.30
26112;BME280;13829;48.990;8.346;2023-04-06T11:46:52;100653.75;;;14.33;34.33
26112;BME280;13829;48.990;8.346;2023-04-06T11:49:19;100658.19;;;14.24;33.89
26112;BME280;13829;48.990;8.346;2023-04-06T11:51:46;100653.81;;;14.23;33.28
26112;BME280;13829;48.990;8.346;2023-04-06T11:54:14;100658.16;;;14.33;33.87
26112;BME280;13829;48.990;8.346;2023-04-06T11:56:46;100645.84;;;14.29;33.91
26112;BME280;13829;48.990;8.346;2023-04-06T11:59:14;100649.38;;;14.25;33.61
26112;BME280;13829;48.990;8.346;2023-04-06T12:01:45;100650.97;;;14.54;35.93
26112;BME280;13829;48.990;8.346;2023-04-06T12:04:12;100653.50;;;14.74;33.80
26112;BME280;13829;48.990;8.346;2023-04-06T12:06:40;100645.38;;;14.94;32.92
26112;BME280;13829;48.990;8.346;2023-04-06T12:09:07;100640.03;;;15.00;33.13
26112;BME280;13829;48.990;8.346;2023-04-06T12:11:34;100645.25;;;15.06;34.34
26112;BME280;13829;48.990;8.346;2023-04-06T12:14:04;100650.53;;;15.09;33.36
26112;BME280;13829;48.990;8.346;2023-04-06T12:16:33;100641.59;;;15.18;32.31
26112;BME280;13829;48.990;8.346;2023-04-06T12:19:00;100644.31;;;15.12;32.27
26112;BME280;13829;48.990;8.346;2023-04-06T12:21:27;100639.72;;;15.29;33.72
26112;BME280;13829;48.990;8.346;2023-04-06T12:23:56;100625.47;;;15.40;32.84
26112;BME280;13829;48.990;8.346;2023-04-06T12:26:24;100634.28;;;15.43;32.58
26112;BME280;13829;48.990;8.346;2023-04-06T12:28:51;100631.66;;;15.39;31.74
26112;BME280;13829;48.990;8.346;2023-04-06T12:31:21;100623.84;;;15.28;32.55
26112;BME280;13829;48.990;8.346;2023-04-06T12:33:50;100623.09;;;15.13;31.98
26112;BME280;13829;48.990;8.346;2023-04-06T12:36:19;100617.03;;;15.05;32.63
26112;BME280;13829;48.990;8.346;2023-04-06T12:38:48;100620.66;;;14.95;32.71
26112;BME280;13829;48.990;8.346;2023-04-06T12:41:16;100625.84;;;15.04;32.13
26112;BME280;13829;48.990;8.346;2023-04-06T12:43:45;100618.63;;;15.20;31.92
26112;BME280;13829;48.990;8.346;2023-04-06T12:46:13;100620.22;;;15.35;30.69
26112;BME280;13829;48.990;8.346;2023-04-06T12:48:41;100615.75;;;15.39;30.73
26112;BME280;13829;48.990;8.346;2023-04-06T12:51:08;100613.13;;;15.37;31.13
26112;BME280;13829;48.990;8.346;2023-04-06T12:53:36;100609.56;;;15.43;30.74
26112;BME280;13829;48.990;8.346;2023-04-06T12:56:14;100616.59;;;15.42;28.99
26112;BME280;13829;48.990;8.346;2023-04-06T12:58:41;100611.25;;;15.47;29.17
26112;BME280;13829;48.990;8.346;2023-04-06T13:01:09;100610.53;;;15.34;30.52